sensor_id;sensor_type;location;lat;lon;timestamp;temperature;humidity
40996;DHT22;26723;57.478;12.066;2023-02-01T00:02:23;4.80;99.90
40996;DHT22;26723;57.478;12.066;2023-02-01T00:05:31;4.80;99.90
40996;DHT22;26723;57.478;12.066;2023-02-01T00:08:41;4.80;99.90
40996;DHT22;26723;57.478;12.066;2023-02-01T00:11:49;4.80;99.90
40996;DHT22;26723;57.478;12.066;2023-02-01T00:14:58;4.70;99.90
40996;DHT22;26723;57.478;12.066;2023-02-01T00:18:06;4.70;99.90
40996;DHT22;26723;57.478;12.066;2023-02-01T00:21:16;4.70;99.90
40996;DHT22;26723;57.478;12.066;2023-02-01T00:24:27;4.70;99.90
40996;DHT22;26723;57.478;12.066;2023-02-01T00:27:35;4.80;99.90
40996;DHT22;26723;57.478;12.066;2023-02-01T00:30:44;4.70;99.90
40996;DHT22;26723;57.478;12.066;2023-02-01T00:33:52;4.80;99.90
40996;DHT22;26723;57.478;12.066;2023-02-01T00:37:01;4.80;99.90
40996;DHT22;26723;57.478;12.066;2023-02-01T00:40:12;4.90;99.90
40996;DHT22;26723;57.478;12.066;2023-02-01T00:43:20;4.90;99.90
40996;DHT22;26723;57.478;12.066;2023-02-01T00:46:29;4.90;99.90
40996;DHT22;26723;57.478;12.066;2023-02-01T00:49:38;4.80;99.90
40996;DHT22;26723;57.478;12.066;2023-02-01T00:52:46;4.80;99.90
40996;DHT22;26723;57.478;12.066;2023-02-01T00:55:56;4.80;99.90
40996;DHT22;26723;57.478;12.066;2023-02-01T00:59:04;4.80;99.90
40996;DHT22;26723;57.478;12.066;2023-02-01T01:02:14;4.80;99.90
40996;DHT22;26723;57.478;12.066;2023-02-01T01:05:22;4.80;99.90
40996;DHT22;26723;57.478;12.066;2023-02-01T01:08:31;4.80;99.90
40996;DHT22;26723;57.478;12.066;2023-02-01T01:11:41;4.80;99.90
40996;DHT22;26723;57.478;12.066;2023-02-01T01:14:49;4.80;99.90
40996;DHT22;26723;57.478;12.066;2023-02-01T01:17:58;4.90;99.90
40996;DHT22;26723;57.478;12.066;2023-02-01T01:21:08;4.90;99.90
40996;DHT22;26723;57.478;12.066;2023-02-01T01:24:17;4.80;99.90
40996;DHT22;26723;57.478;12.066;2023-02-01T01:27:27;4.80;99.90
40996;DHT22;26723;57.478;12.066;2023-02-01T01:30:36;4.80;99.90
40996;DHT22;26723;57.478;12.066;2023-02-01T01:33:47;4.90;99.90
40996;DHT22;26723;57.478;12.066;2023-02-01T01:36:56;4.90;99.90
40996;DHT22;26723;57.478;12.066;2023-02-01T01:40:05;4.90;99.90
40996;DHT22;26723;57.478;12.066;2023-02-01T01:43:18;5.00;99.90
40996;DHT22;26723;57.478;12.066;2023-02-01T01:46:32;5.00;99.90
40996;DHT22;26723;57.478;12.066;2023-02-01T01:49:41;5.10;99.90
40996;DHT22;26723;57.478;12.066;2023-02-01T01:52:51;5.10;99.90
40996;DHT22;26723;57.478;12.066;2023-02-01T01:56:02;5.20;99.90
40996;DHT22;26723;57.478;12.066;2023-02-01T01:59:12;5.10;99.90
40996;DHT22;26723;57.478;12.066;2023-02-01T02:02:20;5.20;99.90
40996;DHT22;26723;57.478;12.066;2023-02-01T02:05:29;5.20;99.90
40996;DHT22;26723;57.478;12.066;2023-02-01T02:08:38;5.20;99.90
40996;DHT22;26723;57.478;12.066;2023-02-01T02:11:48;5.20;99.90
40996;DHT22;26723;57.478;12.066;2023-02-01T02:14:58;5.20;99.90
40996;DHT22;26723;57.478;12.066;2023-02-01T02:18:12;5.20;99.90
40996;DHT22;26723;57.478;12.066;2023-02-01T02:21:36;5.30;99.90
40996;DHT22;26723;57.478;12.066;2023-02-01T02:25:19;5.30;99.90
40996;DHT22;26723;57.478;12.066;2023-02-01T02:32:39;5.40;99.90
40996;DHT22;26723;57.478;12.066;2023-02-01T02:36:00;5.40;99.90
40996;DHT22;26723;57.478;12.066;2023-02-01T02:39:19;5.30;99.90
40996;DHT22;26723;57.478;12.066;2023-02-01T02:42:32;5.30;99.90
40996;DHT22;26723;57.478;12.066;2023-02-01T02:46:07;5.30;99.90
40996;DHT22;26723;57.478;12.066;2023-02-01T02:49:40;5.30;99.90
40996;DHT22;26723;57.478;12.066;2023-02-01T02:52:57;5.30;99.90
40996;DHT22;26723;57.478;12.066;2023-02-01T02:56:25;5.30;99.90
40996;DHT22;26723;57.478;12.066;2023-02-01T02:59:53;5.30;99.90
40996;DHT22;26723;57.478;12.066;2023-02-01T03:03:19;5.40;99.90
40996;DHT22;26723;57.478;12.066;2023-02-01T03:06:45;5.40;99.90
40996;DHT22;26723;57.478;12.066;2023-02-01T03:09:55;5.40;99.90
40996;DHT22;26723;57.478;12.066;2023-02-01T03:13:11;5.40;99.90
40996;DHT22;26723;57.478;12.066;2023-02-01T03:16:23;5.40;99.90
40996;DHT22;26723;57.478;12.066;2023-02-01T03:19:37;5.40;99.90
40996;DHT22;26723;57.478;12.066;2023-02-01T03:22:52;5.40;99.90
40996;DHT22;26723;57.478;12.066;2023-02-01T03:26:05;5.40;99.90
40996;DHT22;26723;57.478;12.066;2023-02-01T03:29:18;5.40;99.90
40996;DHT22;26723;57.478;12.066;2023-02-01T03:32:30;5.40;99.90
40996;DHT22;26723;57.478;12.066;2023-02-01T03:36:05;5.50;99.90
40996;DHT22;26723;57.478;12.066;2023-02-01T03:39:22;5.40;99.90
40996;DHT22;26723;57.478;12.066;2023-02-01T03:42:37;5.40;99.90
40996;DHT22;26723;57.478;12.066;2023-02-01T03:45:50;5.50;99.90
40996;DHT22;26723;57.478;12.066;2023-02-01T03:49:05;5.50;99.90
40996;DHT22;26723;57.478;12.066;2023-02-01T03:52:18;5.50;99.90
40996;DHT22;26723;57.478;12.066;2023-02-01T03:55:28;5.50;99.90
40996;DHT22;26723;57.478;12.066;2023-02-01T03:58:39;5.50;99.90
40996;DHT22;26723;57.478;12.066;2023-02-01T04:01:48;5.50;99.90
40996;DHT22;26723;57.478;12.066;2023-02-01T04:04:56;5.50;99.90
40996;DHT22;26723;57.478;12.066;2023-02-01T04:08:05;5.50;99.90
40996;DHT22;26723;57.478;12.066;2023-02-01T04:11:14;5.50;99.90
40996;DHT22;26723;57.478;12.066;2023-02-01T04:14:23;5.50;99.90
40996;DHT22;26723;57.478;12.066;2023-02-01T04:17:32;5.50;99.90
40996;DHT22;26723;57.478;12.066;2023-02-01T04:20:40;5.50;99.90
40996;DHT22;26723;57.478;12.066;2023-02-01T04:23:50;5.50;99.90
40996;DHT22;26723;57.478;12.066;2023-02-01T04:26:58;5.50;99.90
40996;DHT22;26723;57.478;12.066;2023-02-01T04:30:10;5.40;99.90
40996;DHT22;26723;57.478;12.066;2023-02-01T04:33:18;5.40;99.90
40996;DHT22;26723;57.478;12.066;2023-02-01T04:36:27;5.40;99.90
40996;DHT22;26723;57.478;12.066;2023-02-01T04:39:35;5.40;99.90
40996;DHT22;26723;57.478;12.066;2023-02-01T04:42:44;5.40;99.90
40996;DHT22;26723;57.478;12.066;2023-02-01T04:45:54;5.40;99.90
40996;DHT22;26723;57.478;12.066;2023-02-01T04:49:02;5.30;99.90
40996;DHT22;26723;57.478;12.066;2023-02-01T04:52:11;5.20;99.90
40996;DHT22;26723;57.478;12.066;2023-02-01T04:55:19;5.20;99.90
40996;DHT22;26723;57.478;12.066;2023-02-01T04:58:28;5.20;99.90
40996;DHT22;26723;57.478;12.066;2023-02-01T05:01:38;5.10;99.90
40996;DHT22;26723;57.478;12.066;2023-02-01T05:04:47;5.10;99.90
40996;DHT22;26723;57.478;12.066;2023-02-01T05:07:57;5.00;99.90
40996;DHT22;26723;57.478;12.066;2023-02-01T05:11:06;5.00;99.90
40996;DHT22;26723;57.478;12.066;2023-02-01T05:14:34;5.00;99.90
40996;DHT22;26723;57.478;12.066;2023-02-01T05:17:43;5.00;99.90
40996;DHT22;26723;57.478;12.066;2023-02-01T05:20:52;4.90;99.90
40996;DHT22;26723;57.478;12.066;2023-02-01T05:24:00;4.90;99.90
40996;DHT22;26723;57.478;12.066;2023-02-01T05:27:19;4.90;99.90
40996;DHT22;26723;57.478;12.066;2023-02-01T05:30:28;4.90;99.90
40996;DHT22;26723;57.478;12.066;2023-02-01T05:33:38;4.90;99.90
40996;DHT22;26723;57.478;12.066;2023-02-01T05:36:46;4.80;99.90
40996;DHT22;26723;57.478;12.066;2023-02-01T05:39:55;4.80;99.90
40996;DHT22;26723;57.478;12.066;2023-02-01T05:43:03;4.80;99.90
40996;DHT22;26723;57.478;12.066;2023-02-01T05:46:12;4.80;99.90
40996;DHT22;26723;57.478;12.066;2023-02-01T05:49:22;4.80;99.90
40996;DHT22;26723;57.478;12.066;2023-02-01T05:52:31;4.80;99.90
40996;DHT22;26723;57.478;12.066;2023-02-01T05:55:39;4.80;99.90
40996;DHT22;26723;57.478;12.066;2023-02-01T05:58:48;4.80;99.90
40996;DHT22;26723;57.478;12.066;2023-02-01T06:01:56;4.90;99.90
40996;DHT22;26723;57.478;12.066;2023-02-01T06:05:07;4.90;99.90
40996;DHT22;26723;57.478;12.066;2023-02-01T06:08:16;5.00;99.90
40996;DHT22;26723;57.478;12.066;2023-02-01T06:11:24;5.00;99.90
40996;DHT22;26723;57.478;12.066;2023-02-01T06:14:39;5.10;99.90
40996;DHT22;26723;57.478;12.066;2023-02-01T06:17:50;5.10;99.90
40996;DHT22;26723;57.478;12.066;2023-02-01T06:21:00;5.10;99.90
40996;DHT22;26723;57.478;12.066;2023-02-01T06:24:08;5.00;99.90
40996;DHT22;26723;57.478;12.066;2023-02-01T06:27:17;5.10;99.90
40996;DHT22;26723;57.478;12.066;2023-02-01T06:30:26;5.10;99.90
40996;DHT22;26723;57.478;12.066;2023-02-01T06:33:36;5.10;99.90
40996;DHT22;26723;57.478;12.066;2023-02-01T06:36:46;5.00;99.90
40996;DHT22;26723;57.478;12.066;2023-02-01T06:39:54;5.00;99.90
40996;DHT22;26723;57.478;12.066;2023-02-01T06:43:03;5.00;99.90
40996;DHT22;26723;57.478;12.066;2023-02-01T06:46:12;5.00;99.90
40996;DHT22;26723;57.478;12.066;2023-02-01T06:49:21;5.00;99.90
40996;DHT22;26723;57.478;12.066;2023-02-01T06:52:31;5.10;99.90
40996;DHT22;26723;57.478;12.066;2023-02-01T06:55:39;5.10;99.90
40996;DHT22;26723;57.478;12.066;2023-02-01T06:58:48;5.10;99.90
40996;DHT22;26723;57.478;12.066;2023-02-01T07:01:57;5.10;99.90
40996;DHT22;26723;57.478;12.066;2023-02-01T07:05:06;5.10;99.90
40996;DHT22;26723;57.478;12.066;2023-02-01T07:08:15;5.00;99.90
40996;DHT22;26723;57.478;12.066;2023-02-01T07:11:24;5.00;99.90
40996;DHT22;26723;57.478;12.066;2023-02-01T07:14:35;5.00;99.90
40996;DHT22;26723;57.478;12.066;2023-02-01T07:17:43;5.00;99.90
40996;DHT22;26723;57.478;12.066;2023-02-01T07:20:53;5.00;99.90
40996;DHT22;26723;57.478;12.066;2023-02-01T07:24:03;5.00;99.90
40996;DHT22;26723;57.478;12.066;2023-02-01T07:27:12;5.00;99.90
40996;DHT22;26723;57.478;12.066;2023-02-01T07:30:21;5.00;99.90
40996;DHT22;26723;57.478;12.066;2023-02-01T07:33:29;5.00;99.90
40996;DHT22;26723;57.478;12.066;2023-02-01T07:36:38;5.00;99.90
40996;DHT22;26723;57.478;12.066;2023-02-01T07:39:48;5.10;99.90
40996;DHT22;26723;57.478;12.066;2023-02-01T07:42:56;5.20;99.90
40996;DHT22;26723;57.478;12.066;2023-02-01T07:46:05;5.30;99.90
40996;DHT22;26723;57.478;12.066;2023-02-01T07:49:14;5.40;99.90
40996;DHT22;26723;57.478;12.066;2023-02-01T07:52:24;5.60;99.90
40996;DHT22;26723;57.478;12.066;2023-02-01T07:55:38;5.90;99.90
40996;DHT22;26723;57.478;12.066;2023-02-01T07:58:47;6.20;99.90
40996;DHT22;26723;57.478;12.066;2023-02-01T08:01:56;6.00;99.90
40996;DHT22;26723;57.478;12.066;2023-02-01T08:05:05;5.90;99.90
40996;DHT22;26723;57.478;12.066;2023-02-01T08:08:14;6.00;99.90
40996;DHT22;26723;57.478;12.066;2023-02-01T08:11:25;6.20;99.90
40996;DHT22;26723;57.478;12.066;2023-02-01T08:14:33;6.50;99.90
40996;DHT22;26723;57.478;12.066;2023-02-01T08:17:46;7.50;99.90
40996;DHT22;26723;57.478;12.066;2023-02-01T08:20:55;8.10;99.90
40996;DHT22;26723;57.478;12.066;2023-02-01T08:24:05;8.70;99.90
40996;DHT22;26723;57.478;12.066;2023-02-01T08:27:15;9.90;99.90
40996;DHT22;26723;57.478;12.066;2023-02-01T08:30:23;10.10;99.90
40996;DHT22;26723;57.478;12.066;2023-02-01T08:33:34;9.50;99.90
40996;DHT22;26723;57.478;12.066;2023-02-01T08:36:44;9.60;99.90
40996;DHT22;26723;57.478;12.066;2023-02-01T08:39:52;10.60;99.90
40996;DHT22;26723;57.478;12.066;2023-02-01T08:43:03;11.60;99.90
40996;DHT22;26723;57.478;12.066;2023-02-01T08:46:15;12.30;99.90
40996;DHT22;26723;57.478;12.066;2023-02-01T08:49:25;13.30;99.90
40996;DHT22;26723;57.478;12.066;2023-02-01T08:52:40;13.50;99.90
40996;DHT22;26723;57.478;12.066;2023-02-01T08:55:50;13.70;99.90
40996;DHT22;26723;57.478;12.066;2023-02-01T08:59:02;13.60;99.90
40996;DHT22;26723;57.478;12.066;2023-02-01T09:02:13;13.40;99.90
40996;DHT22;26723;57.478;12.066;2023-02-01T09:05:27;11.70;99.90
40996;DHT22;26723;57.478;12.066;2023-02-01T09:08:55;9.80;99.90
40996;DHT22;26723;57.478;12.066;2023-02-01T09:12:06;8.80;99.90
40996;DHT22;26723;57.478;12.066;2023-02-01T09:15:19;10.90;99.90
40996;DHT22;26723;57.478;12.066;2023-02-01T09:22:02;12.90;99.90
40996;DHT22;26723;57.478;12.066;2023-02-01T09:25:21;12.10;99.90
40996;DHT22;26723;57.478;12.066;2023-02-01T09:28:34;12.90;99.90
40996;DHT22;26723;57.478;12.066;2023-02-01T09:31:46;12.90;99.90
40996;DHT22;26723;57.478;12.066;2023-02-01T09:35:09;12.90;99.90
40996;DHT22;26723;57.478;12.066;2023-02-01T09:38:22;10.40;99.90
40996;DHT22;26723;57.478;12.066;2023-02-01T09:41:45;9.10;99.90
40996;DHT22;26723;57.478;12.066;2023-02-01T09:45:13;8.30;99.90
40996;DHT22;26723;57.478;12.066;2023-02-01T09:48:33;10.30;99.90
40996;DHT22;26723;57.478;12.066;2023-02-01T09:51:48;9.60;99.90
40996;DHT22;26723;57.478;12.066;2023-02-01T09:55:01;9.00;99.90
40996;DHT22;26723;57.478;12.066;2023-02-01T09:58:22;8.10;99.90
40996;DHT22;26723;57.478;12.066;2023-02-01T10:01:32;7.70;99.90
40996;DHT22;26723;57.478;12.066;2023-02-01T10:04:47;7.50;99.90
40996;DHT22;26723;57.478;12.066;2023-02-01T10:08:00;7.30;99.90
40996;DHT22;26723;57.478;12.066;2023-02-01T10:11:20;7.30;99.90
40996;DHT22;26723;57.478;12.066;2023-02-01T10:14:46;7.20;99.90
40996;DHT22;26723;57.478;12.066;2023-02-01T10:21:50;7.20;99.90
40996;DHT22;26723;57.478;12.066;2023-02-01T10:25:05;7.00;99.90
40996;DHT22;26723;57.478;12.066;2023-02-01T10:28:17;6.90;99.90
40996;DHT22;26723;57.478;12.066;2023-02-01T10:31:30;6.90;99.90
40996;DHT22;26723;57.478;12.066;2023-02-01T10:34:41;6.80;99.90
40996;DHT22;26723;57.478;12.066;2023-02-01T10:37:52;6.80;99.90
40996;DHT22;26723;57.478;12.066;2023-02-01T10:41:03;6.70;99.90
40996;DHT22;26723;57.478;12.066;2023-02-01T10:44:17;6.80;99.90
40996;DHT22;26723;57.478;12.066;2023-02-01T10:47:29;6.80;99.90
40996;DHT22;26723;57.478;12.066;2023-02-01T10:50:42;7.00;99.90
40996;DHT22;26723;57.478;12.066;2023-02-01T10:53:57;7.00;99.90
40996;DHT22;26723;57.478;12.066;2023-02-01T10:57:07;6.70;99.90
40996;DHT22;26723;57.478;12.066;2023-02-01T11:00:19;6.60;99.90
40996;DHT22;26723;57.478;12.066;2023-02-01T11:03:36;6.70;99.90
40996;DHT22;26723;57.478;12.066;2023-02-01T11:06:46;6.70;99.90
40996;DHT22;26723;57.478;12.066;2023-02-01T11:09:57;6.70;99.90
40996;DHT22;26723;57.478;12.066;2023-02-01T11:13:13;6.80;99.90
40996;DHT22;26723;57.478;12.066;2023-02-01T11:16:30;6.70;99.90
40996;DHT22;26723;57.478;12.066;2023-02-01T11:19:44;6.70;99.90
40996;DHT22;26723;57.478;12.066;2023-02-01T11:22:54;6.60;99.90
40996;DHT22;26723;57.478;12.066;2023-02-01T11:26:12;6.60;99.90
40996;DHT22;26723;57.478;12.066;2023-02-01T11:29:22;6.60;99.90
40996;DHT22;26723;57.478;12.066;2023-02-01T11:32:39;6.80;99.90
40996;DHT22;26723;57.478;12.066;2023-02-01T11:35:48;6.90;99.90
40996;DHT22;26723;57.478;12.066;2023-02-01T11:39:10;7.20;99.90
40996;DHT22;26723;57.478;12.066;2023-02-01T11:42:20;7.40;99.90
40996;DHT22;26723;57.478;12.066;2023-02-01T11:45:30;7.10;99.90
40996;DHT22;26723;57.478;12.066;2023-02-01T11:48:40;7.00;99.90
40996;DHT22;26723;57.478;12.066;2023-02-01T11:52:03;6.80;99.90
40996;DHT22;26723;57.478;12.066;2023-02-01T11:55:39;6.90;99.90
40996;DHT22;26723;57.478;12.066;2023-02-01T11:59:08;7.00;99.90
40996;DHT22;26723;57.478;12.066;2023-02-01T12:02:41;7.00;99.90
40996;DHT22;26723;57.478;12.066;2023-02-01T12:05:58;6.80;99.90
40996;DHT22;26723;57.478;12.066;2023-02-01T12:09:40;6.70;99.90
40996;DHT22;26723;57.478;12.066;2023-02-01T12:13:00;6.70;99.90
40996;DHT22;26723;57.478;12.066;2023-02-01T12:16:22;6.70;99.90
40996;DHT22;26723;57.478;12.066;2023-02-01T12:19:44;6.60;99.90
40996;DHT22;26723;57.478;12.066;2023-02-01T12:23:09;6.50;99.90
40996;DHT22;26723;57.478;12.066;2023-02-01T12:26:37;6.40;99.90
40996;DHT22;26723;57.478;12.066;2023-02-01T12:30:02;6.50;99.90
40996;DHT22;26723;57.478;12.066;2023-02-01T12:33:31;6.60;99.90
40996;DHT22;26723;57.478;12.066;2023-02-01T12:36:47;6.60;99.90
40996;DHT22;26723;57.478;12.066;2023-02-01T12:40:10;6.60;99.90
40996;DHT22;26723;57.478;12.066;2023-02-01T12:43:22;6.60;99.90
40996;DHT22;26723;57.478;12.066;2023-02-01T12:46:37;6.50;99.90
40996;DHT22;26723;57.478;12.066;2023-02-01T12:49:54;6.50;99.90
40996;DHT22;26723;57.478;12.066;2023-02-01T12:53:11;6.70;99.90
40996;DHT22;26723;57.478;12.066;2023-02-01T12:56:31;6.80;99.90
40996;DHT22;26723;57.478;12.066;2023-02-01T12:59:44;6.90;99.90
40996;DHT22;26723;57.478;12.066;2023-02-01T13:02:59;7.00;99.90
40996;DHT22;26723;57.478;12.066;2023-02-01T13:06:15;6.90;99.90
40996;DHT22;26723;57.478;12.066;2023-02-01T13:09:27;6.80;99.90
40996;DHT22;26723;57.478;12.066;2023-02-01T13:12:40;6.70;99.90
40996;DHT22;26723;57.478;12.066;2023-02-01T13:15:57;6.70;99.90
40996;DHT22;26723;57.478;12.066;2023-02-01T13:19:12;6.70;99.90
40996;DHT22;26723;57.478;12.066;2023-02-01T13:22:29;6.70;99.90
40996;DHT22;26723;57.478;12.066;2023-02-01T13:25:43;6.70;99.90
40996;DHT22;26723;57.478;12.066;2023-02-01T13:29:01;6.60;99.90
40996;DHT22;26723;57.478;12.066;2023-02-01T13:32:26;6.50;99.90
40996;DHT22;26723;57.478;12.066;2023-02-01T13:36:19;6.50;99.90
40996;DHT22;26723;57.478;12.066;2023-02-01T13:39:45;6.50;99.90
40996;DHT22;26723;57.478;12.066;2023-02-01T13:42:58;6.50;99.90
40996;DHT22;26723;57.478;12.066;2023-02-01T13:46:10;6.40;99.90
40996;DHT22;26723;57.478;12.066;2023-02-01T13:49:23;6.40;99.90
40996;DHT22;26723;57.478;12.066;2023-02-01T13:52:38;6.30;99.90
40996;DHT22;26723;57.478;12.066;2023-02-01T13:55:55;6.20;99.90
40996;DHT22;26723;57.478;12.066;2023-02-01T13:59:49;6.10;99.90
40996;DHT22;26723;57.478;12.066;2023-02-01T14:03:13;6.00;99.90
40996;DHT22;26723;57.478;12.066;2023-02-01T14:06:42;6.00;99.90
40996;DHT22;26723;57.478;12.066;2023-02-01T14:09:51;6.00;99.90
40996;DHT22;26723;57.478;12.066;2023-02-01T14:13:12;5.90;99.90
40996;DHT22;26723;57.478;12.066;2023-02-01T14:16:20;5.90;99.90
40996;DHT22;26723;57.478;12.066;2023-02-01T14:19:31;5.90;99.90
40996;DHT22;26723;57.478;12.066;2023-02-01T14:22:40;5.90;99.90
40996;DHT22;26723;57.478;12.066;2023-02-01T14:26:13;5.90;99.90
40996;DHT22;26723;57.478;12.066;2023-02-01T14:29:26;5.90;99.90
40996;DHT22;26723;57.478;12.066;2023-02-01T14:32:37;5.90;99.90
40996;DHT22;26723;57.478;12.066;2023-02-01T14:36:00;5.90;99.90
40996;DHT22;26723;57.478;12.066;2023-02-01T14:39:20;5.90;99.90
40996;DHT22;26723;57.478;12.066;2023-02-01T14:42:36;5.80;99.90
40996;DHT22;26723;57.478;12.066;2023-02-01T14:45:50;5.90;99.90
40996;DHT22;26723;57.478;12.066;2023-02-01T14:48:59;5.80;99.90
40996;DHT22;26723;57.478;12.066;2023-02-01T14:52:13;5.80;99.90
40996;DHT22;26723;57.478;12.066;2023-02-01T14:55:27;5.90;99.90
40996;DHT22;26723;57.478;12.066;2023-02-01T14:58:41;5.80;99.90
40996;DHT22;26723;57.478;12.066;2023-02-01T15:01:55;5.80;99.90
40996;DHT22;26723;57.478;12.066;2023-02-01T15:05:25;5.80;99.90
40996;DHT22;26723;57.478;12.066;2023-02-01T15:08:39;5.80;99.90
40996;DHT22;26723;57.478;12.066;2023-02-01T15:12:00;5.70;99.90
40996;DHT22;26723;57.478;12.066;2023-02-01T15:15:14;5.60;99.90
40996;DHT22;26723;57.478;12.066;2023-02-01T15:18:25;5.30;99.90
40996;DHT22;26723;57.478;12.066;2023-02-01T15:21:43;5.10;99.90
40996;DHT22;26723;57.478;12.066;2023-02-01T15:24:52;5.00;99.90
40996;DHT22;26723;57.478;12.066;2023-02-01T15:28:01;4.80;99.90
40996;DHT22;26723;57.478;12.066;2023-02-01T15:31:10;4.80;99.90
40996;DHT22;26723;57.478;12.066;2023-02-01T15:34:23;4.90;99.90
40996;DHT22;26723;57.478;12.066;2023-02-01T15:37:32;4.70;99.90
40996;DHT22;26723;57.478;12.066;2023-02-01T15:40:53;4.70;99.90
40996;DHT22;26723;57.478;12.066;2023-02-01T15:44:05;4.70;99.90
40996;DHT22;26723;57.478;12.066;2023-02-01T15:47:16;4.70;99.90
40996;DHT22;26723;57.478;12.066;2023-02-01T15:50:28;4.70;99.90
40996;DHT22;26723;57.478;12.066;2023-02-01T15:53:38;4.70;99.90
40996;DHT22;26723;57.478;12.066;2023-02-01T15:56:51;4.60;99.90
40996;DHT22;26723;57.478;12.066;2023-02-01T16:00:04;4.60;99.90
40996;DHT22;26723;57.478;12.066;2023-02-01T16:03:32;4.70;99.90
40996;DHT22;26723;57.478;12.066;2023-02-01T16:06:48;4.60;99.90
40996;DHT22;26723;57.478;12.066;2023-02-01T16:10:01;4.60;99.90
40996;DHT22;26723;57.478;12.066;2023-02-01T16:13:14;4.60;99.90
40996;DHT22;26723;57.478;12.066;2023-02-01T16:16:23;4.50;99.90
40996;DHT22;26723;57.478;12.066;2023-02-01T16:19:32;4.50;99.90
40996;DHT22;26723;57.478;12.066;2023-02-01T16:22:42;4.40;99.90
40996;DHT22;26723;57.478;12.066;2023-02-01T16:25:50;4.50;99.90
40996;DHT22;26723;57.478;12.066;2023-02-01T16:28:59;4.40;99.90
40996;DHT22;26723;57.478;12.066;2023-02-01T16:32:16;4.40;99.90
40996;DHT22;26723;57.478;12.066;2023-02-01T16:35:27;4.40;99.90
40996;DHT22;26723;57.478;12.066;2023-02-01T16:38:38;4.30;99.90
40996;DHT22;26723;57.478;12.066;2023-02-01T16:41:47;4.30;99.90
40996;DHT22;26723;57.478;12.066;2023-02-01T16:44:55;4.30;99.90
40996;DHT22;26723;57.478;12.066;2023-02-01T16:48:04;4.20;99.90
40996;DHT22;26723;57.478;12.066;2023-02-01T16:51:14;4.20;99.90
40996;DHT22;26723;57.478;12.066;2023-02-01T16:54:25;4.10;99.90
40996;DHT22;26723;57.478;12.066;2023-02-01T16:57:34;4.00;99.90
40996;DHT22;26723;57.478;12.066;2023-02-01T17:00:43;4.00;99.90
40996;DHT22;26723;57.478;12.066;2023-02-01T17:03:53;4.00;99.90
40996;DHT22;26723;57.478;12.066;2023-02-01T17:07:03;4.00;99.90
40996;DHT22;26723;57.478;12.066;2023-02-01T17:10:21;4.00;99.90
40996;DHT22;26723;57.478;12.066;2023-02-01T17:13:40;4.00;99.90
40996;DHT22;26723;57.478;12.066;2023-02-01T17:16:49;4.00;99.90
40996;DHT22;26723;57.478;12.066;2023-02-01T17:19:58;4.00;99.90
40996;DHT22;26723;57.478;12.066;2023-02-01T17:23:07;4.00;99.90
40996;DHT22;26723;57.478;12.066;2023-02-01T17:26:17;3.90;99.90
40996;DHT22;26723;57.478;12.066;2023-02-01T17:29:25;4.00;99.90
40996;DHT22;26723;57.478;12.066;2023-02-01T17:32:33;4.00;99.90
40996;DHT22;26723;57.478;12.066;2023-02-01T17:35:47;4.00;99.90
40996;DHT22;26723;57.478;12.066;2023-02-01T17:38:56;4.00;99.90
40996;DHT22;26723;57.478;12.066;2023-02-01T17:42:13;3.90;99.90
40996;DHT22;26723;57.478;12.066;2023-02-01T17:45:32;3.90;99.90
40996;DHT22;26723;57.478;12.066;2023-02-01T17:48:42;3.90;99.90
40996;DHT22;26723;57.478;12.066;2023-02-01T17:51:50;3.90;99.90
40996;DHT22;26723;57.478;12.066;2023-02-01T17:54:59;3.90;99.90
40996;DHT22;26723;57.478;12.066;2023-02-01T17:58:13;3.80;99.90
40996;DHT22;26723;57.478;12.066;2023-02-01T18:01:23;3.70;99.90
40996;DHT22;26723;57.478;12.066;2023-02-01T18:04:32;3.70;99.90
40996;DHT22;26723;57.478;12.066;2023-02-01T18:07:40;3.70;99.90
40996;DHT22;26723;57.478;12.066;2023-02-01T18:10:50;3.70;99.90
40996;DHT22;26723;57.478;12.066;2023-02-01T18:14:01;3.70;99.90
40996;DHT22;26723;57.478;12.066;2023-02-01T18:17:10;3.60;99.90
40996;DHT22;26723;57.478;12.066;2023-02-01T18:20:21;3.60;99.90
40996;DHT22;26723;57.478;12.066;2023-02-01T18:23:30;3.60;99.90
40996;DHT22;26723;57.478;12.066;2023-02-01T18:26:39;3.60;99.90
40996;DHT22;26723;57.478;12.066;2023-02-01T18:29:49;3.60;99.90
40996;DHT22;26723;57.478;12.066;2023-02-01T18:32:57;3.60;99.90
40996;DHT22;26723;57.478;12.066;2023-02-01T18:36:09;3.70;99.90
40996;DHT22;26723;57.478;12.066;2023-02-01T18:39:19;3.70;99.90
40996;DHT22;26723;57.478;12.066;2023-02-01T18:42:27;3.70;99.90
40996;DHT22;26723;57.478;12.066;2023-02-01T18:45:40;3.80;99.90
40996;DHT22;26723;57.478;12.066;2023-02-01T18:48:50;3.80;99.90
40996;DHT22;26723;57.478;12.066;2023-02-01T18:51:59;3.90;99.90
40996;DHT22;26723;57.478;12.066;2023-02-01T18:55:08;3.90;99.90
40996;DHT22;26723;57.478;12.066;2023-02-01T18:58:17;3.90;99.90
40996;DHT22;26723;57.478;12.066;2023-02-01T19:01:27;3.90;99.90
40996;DHT22;26723;57.478;12.066;2023-02-01T19:04:36;3.90;99.90
40996;DHT22;26723;57.478;12.066;2023-02-01T19:07:44;3.90;99.90
40996;DHT22;26723;57.478;12.066;2023-02-01T19:10:53;3.90;99.90
40996;DHT22;26723;57.478;12.066;2023-02-01T19:14:02;4.00;99.90
40996;DHT22;26723;57.478;12.066;2023-02-01T19:17:11;4.00;99.90
40996;DHT22;26723;57.478;12.066;2023-02-01T19:20:23;4.00;99.90
40996;DHT22;26723;57.478;12.066;2023-02-01T19:23:32;4.10;99.90
40996;DHT22;26723;57.478;12.066;2023-02-01T19:26:40;4.10;99.90
40996;DHT22;26723;57.478;12.066;2023-02-01T19:29:49;4.10;99.90
40996;DHT22;26723;57.478;12.066;2023-02-01T19:32:59;4.00;99.90
40996;DHT22;26723;57.478;12.066;2023-02-01T19:36:10;4.00;99.90
40996;DHT22;26723;57.478;12.066;2023-02-01T19:39:19;4.00;99.90
40996;DHT22;26723;57.478;12.066;2023-02-01T19:42:31;3.90;99.90
40996;DHT22;26723;57.478;12.066;2023-02-01T19:45:39;3.80;99.90
40996;DHT22;26723;57.478;12.066;2023-02-01T19:48:51;3.70;99.90
40996;DHT22;26723;57.478;12.066;2023-02-01T19:52:00;3.60;99.90
40996;DHT22;26723;57.478;12.066;2023-02-01T19:55:09;3.50;99.90
40996;DHT22;26723;57.478;12.066;2023-02-01T19:58:17;3.40;99.90
40996;DHT22;26723;57.478;12.066;2023-02-01T20:01:26;3.30;99.90
40996;DHT22;26723;57.478;12.066;2023-02-01T20:04:36;3.30;99.90
40996;DHT22;26723;57.478;12.066;2023-02-01T20:07:52;3.30;99.90
40996;DHT22;26723;57.478;12.066;2023-02-01T20:11:28;3.30;99.90
40996;DHT22;26723;57.478;12.066;2023-02-01T20:14:40;3.30;99.90
40996;DHT22;26723;57.478;12.066;2023-02-01T20:17:48;3.20;99.90
40996;DHT22;26723;57.478;12.066;2023-02-01T20:20:59;3.10;99.90
40996;DHT22;26723;57.478;12.066;2023-02-01T20:24:08;3.10;99.90
40996;DHT22;26723;57.478;12.066;2023-02-01T20:27:17;3.00;99.90
40996;DHT22;26723;57.478;12.066;2023-02-01T20:30:25;3.00;99.90